Time;durP1;ratioP1;P1;durP2;ratioP2;P2;SDS_P1;SDS_P2;PMS_P1;PMS_P2;Temp;Humidity;BMP_temperature;BMP_pressure;BME280_temperature;BME280_humidity;BME280_pressure;Samples;Min_cycle;Max_cycle;Signal;HPM_P1;HPM_P2
2023/05/02 00:01:06;;;;;;;;;;;;;;;;;;5035071;28;19913;-78
2023/05/02 00:03:31;;;;;;;;;;;;;;;;;;5035128;28;19968;-77
2023/05/02 00:05:57;;;;;;;;;;;;;;;;;;5033731;28;19923;-77
2023/05/02 00:08:22;;;;;;;;;;;;;;;;;;5045827;22;19920;-77
2023/05/02 00:10:47;;;;;;;;;;;;;;;;;;5013536;28;19952;-77
2023/05/02 00:13:13;;;;;;;;;;;;;;;;;;5015225;28;19929;-76
2023/05/02 00:15:38;;;;;;;;;;;;;;;;;;5015047;28;19952;-76
2023/05/02 00:18:03;;;;;;;;;;;;;;;;;;5013635;28;19917;-77
2023/05/02 00:20:29;;;;;;;;;;;;;;;;;;5014639;28;20342;-76
2023/05/02 00:22:54;;;;;;;;;;;;;;;;;;5013587;28;20386;-76
2023/05/02 00:25:20;;;;;;;;;;;;;;;;;;5014908;28;19914;-76
2023/05/02 00:27:45;;;;;;;;;;;;;;;;;;5002697;28;19957;-76
2023/05/02 00:30:11;;;;;;;;;;;;;;;;;;5013808;28;19949;-76
2023/05/02 00:32:36;;;;;;;;;;;;;;;;;;4998116;28;20368;-76
2023/05/02 00:35:02;;;;;;;;;;;;;;;;;;4998029;28;20300;-77
2023/05/02 00:37:28;;;;;;;;;;;;;;;;;;4997772;28;20357;-76
2023/05/02 00:39:53;;;;;;;;;;;;;;;;;;5014748;28;20000;-76
2023/05/02 00:42:19;;;;;;;;;;;;;;;;;;5015322;28;20273;-77
2023/05/02 00:44:45;;;;;;;;;;;;;;;;;;5014377;28;19920;-76
2023/05/02 00:47:11;;;;;;;;;;;;;;;;;;5015432;28;19914;-76
2023/05/02 00:49:36;;;;;;;;;;;;;;;;;;5013985;28;19952;-76
2023/05/02 00:52:02;;;;;;;;;;;;;;;;;;5015792;28;19914;-76
2023/05/02 00:54:27;;;;;;;;;;;;;;;;;;4996196;28;19917;-76
2023/05/02 00:56:52;;;;;;;;;;;;;;;;;;5010245;28;19918;-77
2023/05/02 00:59:18;;;;;;;;;;;;;;;;;;5023316;28;19913;-77
2023/05/02 01:01:43;;;;;;;;;;;;;;;;;;4988023;28;19921;-76
2023/05/02 01:04:08;;;;;;;;;;;;;;;;;;5024507;28;19913;-76
2023/05/02 01:06:34;;;;;;;;;;;;;;;;;;5021064;28;20376;-76
2023/05/02 01:08:59;;;;;;;;;;;;;;;;;;5024272;28;19924;-77
2023/05/02 01:11:25;;;;;;;;;;;;;;;;;;5019827;28;19944;-77
2023/05/02 01:13:50;;;;;;;;;;;;;;;;;;5012932;28;19943;-77
2023/05/02 01:16:16;;;;;;;;;;;;;;;;;;5012768;28;19913;-77
2023/05/02 01:18:41;;;;;;;;;;;;;;;;;;5012695;28;19971;-75
2023/05/02 01:21:06;;;;;;;;;;;;;;;;;;5013639;28;20008;-77
2023/05/02 01:23:32;;;;;;;;;;;;;;;;;;4993036;28;20422;-76
2023/05/02 01:25:57;;;;;;;;;;;;;;;;;;4996219;28;19917;-77
2023/05/02 01:28:22;;;;;;;;;;;;;;;;;;5001491;28;19918;-77
2023/05/02 01:30:49;;;;;;;;;;;;;;;;;;4996199;28;19936;-77
2023/05/02 01:33:16;;;;;;;;;;;;;;;;;;5012524;28;19913;-77
2023/05/02 01:35:41;;;;;;;;;;;;;;;;;;5013418;28;19921;-75
2023/05/02 01:38:07;;;;;;;;;;;;;;;;;;5012355;28;20040;-77
2023/05/02 01:40:32;;;;;;;;;;;;;;;;;;5013450;28;20368;-77
2023/05/02 01:42:58;;;;;;;;;;;;;;;;;;5012053;28;20438;-76
2023/05/02 01:45:23;;;;;;;;;;;;;;;;;;4995846;28;20453;-77
2023/05/02 01:47:50;;;;;;;;;;;;;;;;;;5011957;28;19959;-77
2023/05/02 01:50:15;;;;;;;;;;;;;;;;;;5011755;28;19914;-77
2023/05/02 01:52:41;;;;;;;;;;;;;;;;;;5012069;28;20462;-76
2023/05/02 01:55:06;;;;;;;;;;;;;;;;;;5013129;28;20396;-77
2023/05/02 01:57:31;;;;;;;;;;;;;;;;;;5013074;28;20441;-76
2023/05/02 01:59:57;;;;;;;;;;;;;;;;;;5011618;28;19920;-77
2023/05/02 02:02:22;;;;;;;;;;;;;;;;;;5013082;28;19936;-76
2023/05/02 02:04:47;;;;;;;;;;;;;;;;;;5012970;28;19910;-77
2023/05/02 02:07:13;;;;;;;;;;;;;;;;;;5011697;28;20012;-76
2023/05/02 02:09:38;;;;;;;;;;;;;;;;;;4995435;28;20288;-77
2023/05/02 02:12:04;;;;;;;;;;;;;;;;;;5012966;28;19956;-77
2023/05/02 02:14:29;;;;;;;;;;;;;;;;;;4995574;28;20431;-77
2023/05/02 02:16:54;;;;;;;;;;;;;;;;;;5011583;28;20392;-76
2023/05/02 02:19:20;;;;;;;;;;;;;;;;;;5011262;28;20003;-76
2023/05/02 02:21:45;;;;;;;;;;;;;;;;;;5011434;28;19913;-77
2023/05/02 02:24:11;;;;;;;;;;;;;;;;;;5012836;28;19913;-76
2023/05/02 02:26:36;;;;;;;;;;;;;;;;;;5005412;28;19914;-77
2023/05/02 02:29:01;;;;;;;;;;;;;;;;;;5012229;28;19955;-76
2023/05/02 02:31:27;;;;;;;;;;;;;;;;;;4995671;28;20232;-76
2023/05/02 02:33:53;;;;;;;;;;;;;;;;;;5012962;28;20511;-77
2023/05/02 02:36:18;;;;;;;;;;;;;;;;;;5011525;28;19940;-76
2023/05/02 02:38:43;;;;;;;;;;;;;;;;;;5013147;28;19944;-77
2023/05/02 02:41:10;;;;;;;;;;;;;;;;;;5012098;28;19921;-78
2023/05/02 02:43:35;;;;;;;;;;;;;;;;;;5012009;28;19914;-77
2023/05/02 02:46:00;;;;;;;;;;;;;;;;;;5012811;28;19919;-77
2023/05/02 02:48:26;;;;;;;;;;;;;;;;;;5009215;28;19914;-77
2023/05/02 02:50:52;;;;;;;;;;;;;;;;;;5011441;28;20368;-77
2023/05/02 02:53:18;;;;;;;;;;;;;;;;;;5011673;28;19914;-76
2023/05/02 02:55:43;;;;;;;;;;;;;;;;;;5011229;28;19949;-78
2023/05/02 02:58:09;;;;;;;;;;;;;;;;;;5012171;28;19997;-77
2023/05/02 03:00:34;;;;;;;;;;;;;;;;;;4994544;28;19914;-77
2023/05/02 03:02:59;;;;;;;;;;;;;;;;;;5012228;28;20000;-77
2023/05/02 03:05:25;;;;;;;;;;;;;;;;;;5010908;28;19909;-76
2023/05/02 03:07:50;;;;;;;;;;;;;;;;;;5012147;28;19917;-77
2023/05/02 03:10:16;;;;;;;;;;;;;;;;;;5010772;28;19924;-77
2023/05/02 03:12:42;;;;;;;;;;;;;;;;;;5012327;28;20328;-77
2023/05/02 03:15:07;;;;;;;;;;;;;;;;;;5011159;28;19960;-77
2023/05/02 03:17:33;;;;;;;;;;;;;;;;;;5010882;28;19940;-77
2023/05/02 03:19:58;;;;;;;;;;;;;;;;;;5011729;28;19949;-78
2023/05/02 03:22:24;;;;;;;;;;;;;;;;;;4994835;28;19972;-77
2023/05/02 03:24:49;;;;;;;;;;;;;;;;;;4991225;28;20288;-76
2023/05/02 03:27:15;;;;;;;;;;;;;;;;;;5003491;28;19921;-77
2023/05/02 03:29:41;;;;;;;;;;;;;;;;;;5012220;28;20405;-78
2023/05/02 03:32:08;;;;;;;;;;;;;;;;;;5014653;28;19957;-77
2023/05/02 03:34:35;;;;;;;;;;;;;;;;;;5014547;28;19914;-77
2023/05/02 03:37:00;;;;;;;;;;;;;;;;;;5014376;28;19923;-77
2023/05/02 03:39:26;;;;;;;;;;;;;;;;;;4997970;28;19919;-77
2023/05/02 03:41:52;;;;;;;;;;;;;;;;;;5014421;28;20384;-77
2023/05/02 03:44:20;;;;;;;;;;;;;;;;;;4997972;28;20289;-76
2023/05/02 03:46:47;;;;;;;;;;;;;;;;;;5014919;28;19985;-77
2023/05/02 03:49:12;;;;;;;;;;;;;;;;;;5015544;28;19914;-77
2023/05/02 03:51:40;;;;;;;;;;;;;;;;;;5014579;28;19913;-78
2023/05/02 03:54:08;;;;;;;;;;;;;;;;;;4997863;28;19921;-78
2023/05/02 03:56:34;;;;;;;;;;;;;;;;;;5014603;28;19960;-77
2023/05/02 03:59:11;;;;;;;;;;;;;;;;;;4998481;28;20342;-77
2023/05/02 04:01:36;;;;;;;;;;;;;;;;;;5014786;28;19913;-77
2023/05/02 04:04:02;;;;;;;;;;;;;;;;;;5015368;28;19991;-77
2023/05/02 04:06:32;;;;;;;;;;;;;;;;;;5015028;28;20396;-76
2023/05/02 04:09:01;;;;;;;;;;;;;;;;;;4997427;28;19967;-76
2023/05/02 04:11:33;;;;;;;;;;;;;;;;;;5001562;28;20269;-75
2023/05/02 04:13:59;;;;;;;;;;;;;;;;;;5019791;28;19935;-76
2023/05/02 04:16:25;;;;;;;;;;;;;;;;;;5022601;28;20471;-76
2023/05/02 04:18:50;;;;;;;;;;;;;;;;;;5007001;28;19954;-76
2023/05/02 04:21:16;;;;;;;;;;;;;;;;;;5002577;28;19914;-77
2023/05/02 04:23:42;;;;;;;;;;;;;;;;;;5014828;28;19921;-77
2023/05/02 04:26:07;;;;;;;;;;;;;;;;;;5014519;28;19914;-77
2023/05/02 04:28:40;;;;;;;;;;;;;;;;;;5013441;28;19952;-77
2023/05/02 04:31:06;;;;;;;;;;;;;;;;;;5013327;28;19983;-76
2023/05/02 04:33:31;;;;;;;;;;;;;;;;;;5013346;28;20384;-76
2023/05/02 04:35:57;;;;;;;;;;;;;;;;;;5013156;28;20008;-76
2023/05/02 04:38:23;;;;;;;;;;;;;;;;;;4993441;28;20328;-77
2023/05/02 04:40:49;;;;;;;;;;;;;;;;;;5004024;28;19917;-77
2023/05/02 04:43:14;;;;;;;;;;;;;;;;;;5013312;28;19967;-77
2023/05/02 04:45:54;;;;;;;;;;;;;;;;;;5013097;28;20008;-76
2023/05/02 04:48:26;;;;;;;;;;;;;;;;;;5012995;28;19918;-77
2023/05/02 04:50:52;;;;;;;;;;;;;;;;;;4996921;28;20331;-77
2023/05/02 04:53:19;;;;;;;;;;;;;;;;;;5013088;28;19953;-77
2023/05/02 04:55:45;;;;;;;;;;;;;;;;;;4996759;28;20395;-77
2023/05/02 04:58:11;;;;;;;;;;;;;;;;;;5013106;28;19921;-76
2023/05/02 05:00:37;;;;;;;;;;;;;;;;;;5011328;28;19921;-77
2023/05/02 05:03:05;;;;;;;;;;;;;;;;;;5012773;28;19913;-77
2023/05/02 05:05:30;;;;;;;;;;;;;;;;;;4992925;28;19920;-77
2023/05/02 05:07:55;;;;;;;;;;;;;;;;;;5012489;28;19914;-77
2023/05/02 05:10:23;;;;;;;;;;;;;;;;;;5012271;28;20013;-75
2023/05/02 05:12:48;;;;;;;;;;;;;;;;;;5012416;28;20000;-77
2023/05/02 05:15:14;;;;;;;;;;;;;;;;;;5012310;28;20329;-78
2023/05/02 05:17:43;;;;;;;;;;;;;;;;;;4995974;28;19924;-77
2023/05/02 05:20:09;;;;;;;;;;;;;;;;;;4995760;28;19913;-77
2023/05/02 05:22:35;;;;;;;;;;;;;;;;;;5012551;28;19980;-77
2023/05/02 05:25:00;;;;;;;;;;;;;;;;;;5012095;28;19913;-76
2023/05/02 05:27:28;;;;;;;;;;;;;;;;;;4996073;28;19918;-76
2023/05/02 05:29:54;;;;;;;;;;;;;;;;;;5011403;28;19920;-77
2023/05/02 05:32:20;;;;;;;;;;;;;;;;;;5013246;28;19921;-76
2023/05/02 05:34:46;;;;;;;;;;;;;;;;;;4992317;28;19948;-77
2023/05/02 05:37:12;;;;;;;;;;;;;;;;;;4989648;28;19918;-77
2023/05/02 05:39:37;;;;;;;;;;;;;;;;;;5011526;28;19920;-76
2023/05/02 05:42:04;;;;;;;;;;;;;;;;;;4992345;28;19917;-76
2023/05/02 05:44:30;;;;;;;;;;;;;;;;;;5000450;28;19924;-77
2023/05/02 05:46:56;;;;;;;;;;;;;;;;;;5012221;28;19917;-76
2023/05/02 05:49:23;;;;;;;;;;;;;;;;;;5013317;28;19921;-76
2023/05/02 05:51:49;;;;;;;;;;;;;;;;;;5011975;28;19913;-77
2023/05/02 05:54:16;;;;;;;;;;;;;;;;;;5011669;28;19965;-77
2023/05/02 05:56:41;;;;;;;;;;;;;;;;;;5013624;28;19920;-77
2023/05/02 05:59:11;;;;;;;;;;;;;;;;;;4994799;28;20277;-77
2023/05/02 06:01:37;;;;;;;;;;;;;;;;;;5011200;28;19928;-77
2023/05/02 06:04:03;;;;;;;;;;;;;;;;;;5011731;28;19920;-77
2023/05/02 06:06:30;;;;;;;;;;;;;;;;;;5011767;28;19917;-77
2023/05/02 06:08:55;;;;;;;;;;;;;;;;;;5025004;22;20177;-76
2023/05/02 06:11:21;;;;;;;;;;;;;;;;;;4994996;28;20020;-76
2023/05/02 06:13:46;;;;;;;;;;;;;;;;;;5012545;28;20330;-76
2023/05/02 06:16:12;;;;;;;;;;;;;;;;;;5011713;28;19913;-76
2023/05/02 06:18:37;;;;;;;;;;;;;;;;;;5011439;28;19917;-75
2023/05/02 06:21:03;;;;;;;;;;;;;;;;;;5012950;28;20245;-77
2023/05/02 06:23:28;;;;;;;;;;;;;;;;;;5011558;28;19975;-77
2023/05/02 06:25:54;;;;;;;;;;;;;;;;;;5011289;28;19913;-76
2023/05/02 06:28:20;;;;;;;;;;;;;;;;;;5011547;28;19914;-78
2023/05/02 06:30:45;;;;;;;;;;;;;;;;;;5011537;28;19920;-76
2023/05/02 06:33:11;;;;;;;;;;;;;;;;;;5012969;28;19913;-77
2023/05/02 06:35:36;;;;;;;;;;;;;;;;;;5011189;28;20048;-75
2023/05/02 06:38:01;;;;;;;;;;;;;;;;;;5010941;28;19918;-76
2023/05/02 06:40:27;;;;;;;;;;;;;;;;;;5011044;28;19913;-76
2023/05/02 06:42:52;;;;;;;;;;;;;;;;;;4994751;28;20400;-77
2023/05/02 06:45:18;;;;;;;;;;;;;;;;;;5012240;28;20003;-75
2023/05/02 06:47:43;;;;;;;;;;;;;;;;;;5010806;28;20373;-77
2023/05/02 06:50:08;;;;;;;;;;;;;;;;;;5011816;28;19917;-77
2023/05/02 06:52:34;;;;;;;;;;;;;;;;;;5011952;28;19913;-77
2023/05/02 06:54:59;;;;;;;;;;;;;;;;;;5012305;28;20269;-77
2023/05/02 06:57:25;;;;;;;;;;;;;;;;;;5010695;28;20312;-75
2023/05/02 06:59:50;;;;;;;;;;;;;;;;;;5004505;28;20040;-77
2023/05/02 07:02:15;;;;;;;;;;;;;;;;;;5010698;28;19914;-76
2023/05/02 07:04:41;;;;;;;;;;;;;;;;;;5012296;28;20333;-76
2023/05/02 07:07:06;;;;;;;;;;;;;;;;;;5016094;28;19913;-75
2023/05/02 07:09:31;;;;;;;;;;;;;;;;;;5014618;28;19922;-76
2023/05/02 07:11:57;;;;;;;;;;;;;;;;;;5016345;28;19917;-76
2023/05/02 07:14:22;;;;;;;;;;;;;;;;;;5016620;28;19967;-77
2023/05/02 07:16:48;;;;;;;;;;;;;;;;;;5020362;28;20427;-76
2023/05/02 07:19:13;;;;;;;;;;;;;;;;;;5018384;28;19921;-76
2023/05/02 07:21:38;;;;;;;;;;;;;;;;;;5017245;28;19920;-79
2023/05/02 07:24:04;;;;;;;;;;;;;;;;;;5018352;28;19920;-77
2023/05/02 07:26:29;;;;;;;;;;;;;;;;;;5018349;28;19914;-76
2023/05/02 07:28:55;;;;;;;;;;;;;;;;;;5019080;28;19914;-77
2023/05/02 07:31:20;;;;;;;;;;;;;;;;;;5018711;28;20327;-79
2023/05/02 07:33:46;;;;;;;;;;;;;;;;;;5017839;28;19928;-78
2023/05/02 07:36:11;;;;;;;;;;;;;;;;;;5018024;28;20399;-78
2023/05/02 07:38:36;;;;;;;;;;;;;;;;;;5009992;28;19925;-78
2023/05/02 07:41:02;;;;;;;;;;;;;;;;;;5008201;28;19914;-77
2023/05/02 07:43:28;;;;;;;;;;;;;;;;;;5015365;28;19959;-76
2023/05/02 07:45:53;;;;;;;;;;;;;;;;;;5014452;28;19914;-77
2023/05/02 07:48:19;;;;;;;;;;;;;;;;;;5014342;28;20502;-77
2023/05/02 07:50:44;;;;;;;;;;;;;;;;;;5015135;28;19913;-77
2023/05/02 07:53:10;;;;;;;;;;;;;;;;;;5015524;28;19913;-78
2023/05/02 07:55:35;;;;;;;;;;;;;;;;;;5007191;28;19941;-76
2023/05/02 07:58:01;;;;;;;;;;;;;;;;;;5015091;28;20062;-77
2023/05/02 08:00:26;;;;;;;;;;;;;;;;;;5013818;28;19921;-78
2023/05/02 08:02:51;;;;;;;;;;;;;;;;;;5014013;28;19917;-77
2023/05/02 08:05:17;;;;;;;;;;;;;;;;;;5014206;28;19941;-78
2023/05/02 08:07:42;;;;;;;;;;;;;;;;;;5013776;28;19961;-78
2023/05/02 08:10:08;;;;;;;;;;;;;;;;;;5014748;28;19917;-77
2023/05/02 08:12:33;;;;;;;;;;;;;;;;;;5013826;28;19914;-79
2023/05/02 08:14:59;;;;;;;;;;;;;;;;;;4997862;28;19917;-79
2023/05/02 08:17:24;;;;;;;;;;;;;;;;;;5014662;28;19917;-78
2023/05/02 08:19:50;;;;;;;;;;;;;;;;;;5013854;28;19914;-77
2023/05/02 08:22:15;;;;;;;;;;;;;;;;;;5013743;28;19913;-78
2023/05/02 08:24:40;;;;;;;;;;;;;;;;;;5015054;28;19956;-78
2023/05/02 08:27:06;;;;;;;;;;;;;;;;;;5013765;28;19980;-76
2023/05/02 08:29:31;;;;;;;;;;;;;;;;;;5013084;28;20372;-77
2023/05/02 08:31:57;;;;;;;;;;;;;;;;;;5010333;28;20317;-76
2023/05/02 08:34:22;;;;;;;;;;;;;;;;;;5014425;28;19914;-76
2023/05/02 08:36:48;;;;;;;;;;;;;;;;;;4996852;28;19917;-78
2023/05/02 08:39:13;;;;;;;;;;;;;;;;;;5013138;28;19918;-76
2023/05/02 08:41:39;;;;;;;;;;;;;;;;;;5014253;28;20000;-76
2023/05/02 08:44:04;;;;;;;;;;;;;;;;;;5014696;28;19913;-77
2023/05/02 08:46:29;;;;;;;;;;;;;;;;;;5014584;28;19968;-75
2023/05/02 08:48:57;;;;;;;;;;;;;;;;;;5014663;28;19952;-77
2023/05/02 08:51:23;;;;;;;;;;;;;;;;;;5013257;28;19920;-77
2023/05/02 08:53:48;;;;;;;;;;;;;;;;;;5014446;28;19913;-76
2023/05/02 08:56:13;;;;;;;;;;;;;;;;;;5014300;28;19914;-77
2023/05/02 08:58:42;;;;;;;;;;;;;;;;;;5013919;28;19972;-76
2023/05/02 09:01:07;;;;;;;;;;;;;;;;;;5014026;28;19917;-77
2023/05/02 09:03:33;;;;;;;;;;;;;;;;;;5014336;28;19921;-76
2023/05/02 09:05:58;;;;;;;;;;;;;;;;;;5013518;28;19940;-76
2023/05/02 09:08:24;;;;;;;;;;;;;;;;;;5014124;28;20292;-77
2023/05/02 09:10:52;;;;;;;;;;;;;;;;;;5015683;28;20229;-77
2023/05/02 09:13:18;;;;;;;;;;;;;;;;;;5016463;28;19917;-78
2023/05/02 09:15:44;;;;;;;;;;;;;;;;;;5016210;28;19967;-75
2023/05/02 09:18:10;;;;;;;;;;;;;;;;;;4996869;28;19917;-75
2023/05/02 09:20:35;;;;;;;;;;;;;;;;;;5012932;28;20391;-77
2023/05/02 09:23:01;;;;;;;;;;;;;;;;;;5015954;28;20404;-78
2023/05/02 09:25:26;;;;;;;;;;;;;;;;;;5013466;28;19913;-76
2023/05/02 09:27:52;;;;;;;;;;;;;;;;;;5011632;28;19914;-77
2023/05/02 09:30:17;;;;;;;;;;;;;;;;;;5013142;28;20464;-77
2023/05/02 09:32:43;;;;;;;;;;;;;;;;;;5013195;28;19916;-77
2023/05/02 09:35:08;;;;;;;;;;;;;;;;;;5012279;28;20361;-77
2023/05/02 09:37:34;;;;;;;;;;;;;;;;;;4992686;28;19956;-77
2023/05/02 09:39:59;;;;;;;;;;;;;;;;;;5011755;28;20300;-78
2023/05/02 09:42:25;;;;;;;;;;;;;;;;;;5013146;28;19921;-77
2023/05/02 09:44:50;;;;;;;;;;;;;;;;;;5013058;28;19925;-75
2023/05/02 09:47:16;;;;;;;;;;;;;;;;;;5012949;28;19913;-78
2023/05/02 09:49:41;;;;;;;;;;;;;;;;;;5012667;28;19968;-77
2023/05/02 09:52:06;;;;;;;;;;;;;;;;;;5013156;28;19918;-76
2023/05/02 09:54:32;;;;;;;;;;;;;;;;;;5013052;28;19914;-75
2023/05/02 09:56:57;;;;;;;;;;;;;;;;;;5013035;28;19917;-78
2023/05/02 09:59:23;;;;;;;;;;;;;;;;;;5008125;28;20404;-77
2023/05/02 10:01:48;;;;;;;;;;;;;;;;;;5010147;28;19939;-77
2023/05/02 10:04:17;;;;;;;;;;;;;;;;;;5011786;28;20008;-77
2023/05/02 10:06:43;;;;;;;;;;;;;;;;;;5012939;28;19914;-77
2023/05/02 10:09:08;;;;;;;;;;;;;;;;;;5011436;28;20296;-78
2023/05/02 10:11:33;;;;;;;;;;;;;;;;;;5012777;28;19920;-77
2023/05/02 10:13:59;;;;;;;;;;;;;;;;;;5013062;28;19925;-77
2023/05/02 10:16:25;;;;;;;;;;;;;;;;;;5013353;28;20376;-77
2023/05/02 10:18:51;;;;;;;;;;;;;;;;;;5012979;28;20020;-76
2023/05/02 10:21:18;;;;;;;;;;;;;;;;;;4993907;28;20011;-77
2023/05/02 10:23:43;;;;;;;;;;;;;;;;;;5015404;28;19919;-77
2023/05/02 10:26:08;;;;;;;;;;;;;;;;;;5026207;28;19944;-78
2023/05/02 10:28:34;;;;;;;;;;;;;;;;;;5029362;28;19936;-78
2023/05/02 10:31:00;;;;;;;;;;;;;;;;;;5006905;28;19952;-78
2023/05/02 10:33:25;;;;;;;;;;;;;;;;;;5024349;28;19966;-79
2023/05/02 10:35:51;;;;;;;;;;;;;;;;;;5027718;28;19921;-78
2023/05/02 10:38:18;;;;;;;;;;;;;;;;;;5022058;28;19957;-77
2023/05/02 10:40:43;;;;;;;;;;;;;;;;;;5024978;28;19913;-77
2023/05/02 10:43:08;;;;;;;;;;;;;;;;;;5018554;28;20422;-77
2023/05/02 10:45:34;;;;;;;;;;;;;;;;;;5017089;28;19957;-78
2023/05/02 10:47:59;;;;;;;;;;;;;;;;;;5020204;28;19917;-79
2023/05/02 10:50:25;;;;;;;;;;;;;;;;;;5019443;28;20003;-77
2023/05/02 10:52:50;;;;;;;;;;;;;;;;;;5019061;28;19917;-77
2023/05/02 10:55:16;;;;;;;;;;;;;;;;;;5017518;28;20012;-77
2023/05/02 10:57:41;;;;;;;;;;;;;;;;;;5012196;28;19964;-76
2023/05/02 11:00:07;;;;;;;;;;;;;;;;;;5010661;28;20562;-78
2023/05/02 11:02:34;;;;;;;;;;;;;;;;;;5011111;28;19913;-78
2023/05/02 11:05:02;;;;;;;;;;;;;;;;;;5012015;28;20315;-76
2023/05/02 11:07:30;;;;;;;;;;;;;;;;;;5012146;28;19917;-76
2023/05/02 11:09:55;;;;;;;;;;;;;;;;;;5011493;28;20411;-78
2023/05/02 11:12:21;;;;;;;;;;;;;;;;;;4994564;28;19914;-77
2023/05/02 11:14:48;;;;;;;;;;;;;;;;;;5012123;28;20017;-76
2023/05/02 11:17:14;;;;;;;;;;;;;;;;;;4994689;28;20372;-77
2023/05/02 11:19:39;;;;;;;;;;;;;;;;;;5010790;28;20043;-76
2023/05/02 11:22:05;;;;;;;;;;;;;;;;;;5010754;28;19962;-78
2023/05/02 11:24:30;;;;;;;;;;;;;;;;;;5012289;28;19914;-79
2023/05/02 11:26:56;;;;;;;;;;;;;;;;;;5012151;28;19913;-78
2023/05/02 11:29:21;;;;;;;;;;;;;;;;;;5010545;28;19914;-77
2023/05/02 11:31:47;;;;;;;;;;;;;;;;;;5010372;28;19928;-79
2023/05/02 11:34:12;;;;;;;;;;;;;;;;;;5012159;28;20012;-78
2023/05/02 11:36:38;;;;;;;;;;;;;;;;;;5010644;28;20238;-77
2023/05/02 11:39:04;;;;;;;;;;;;;;;;;;5011814;28;20016;-76
2023/05/02 11:41:30;;;;;;;;;;;;;;;;;;5010509;28;19964;-77
2023/05/02 11:43:55;;;;;;;;;;;;;;;;;;5011491;28;19917;-76
2023/05/02 11:46:21;;;;;;;;;;;;;;;;;;5011782;28;19917;-76
2023/05/02 11:48:47;;;;;;;;;;;;;;;;;;5012045;28;19968;-84
2023/05/02 11:51:12;;;;;;;;;;;;;;;;;;4995612;28;19917;-82
2023/05/02 11:53:37;;;;;;;;;;;;;;;;;;5015687;28;19917;-82
2023/05/02 11:56:03;;;;;;;;;;;;;;;;;;5015437;28;19984;-80
2023/05/02 11:58:28;;;;;;;;;;;;;;;;;;5015206;28;20284;-80
2023/05/02 12:00:54;;;;;;;;;;;;;;;;;;5014356;28;19943;-81
2023/05/02 12:03:20;;;;;;;;;;;;;;;;;;5014818;28;20257;-82
2023/05/02 12:05:46;;;;;;;;;;;;;;;;;;5016067;28;19913;-82
2023/05/02 12:08:11;;;;;;;;;;;;;;;;;;5015333;28;20288;-83
2023/05/02 12:10:37;;;;;;;;;;;;;;;;;;5067636;22;19924;-81
2023/05/02 12:13:02;;;;;;;;;;;;;;;;;;5058097;28;20287;-80
2023/05/02 12:15:27;;;;;;;;;;;;;;;;;;5075829;28;20278;-80
2023/05/02 12:17:53;;;;;;;;;;;;;;;;;;5076020;28;19962;-80
2023/05/02 12:20:18;;;;;;;;;;;;;;;;;;5029567;28;20377;-80
2023/05/02 12:22:44;;;;;;;;;;;;;;;;;;5045700;28;20438;-81
2023/05/02 12:25:10;;;;;;;;;;;;;;;;;;5052208;28;20287;-80
2023/05/02 12:27:36;;;;;;;;;;;;;;;;;;5052578;28;20075;-80
2023/05/02 12:30:02;;;;;;;;;;;;;;;;;;5045497;28;19913;-79
2023/05/02 12:32:31;;;;;;;;;;;;;;;;;;5055973;28;19948;-79
2023/05/02 12:34:56;;;;;;;;;;;;;;;;;;5055145;28;19951;-78
2023/05/02 12:37:22;;;;;;;;;;;;;;;;;;5047348;28;19917;-82
2023/05/02 12:39:47;;;;;;;;;;;;;;;;;;5040033;28;20372;-82
2023/05/02 12:42:13;;;;;;;;;;;;;;;;;;5073221;28;19920;-82
2023/05/02 12:44:39;;;;;;;;;;;;;;;;;;5040628;28;19919;-83
2023/05/02 12:47:04;;;;;;;;;;;;;;;;;;5047878;28;19913;-82
2023/05/02 12:49:29;;;;;;;;;;;;;;;;;;5050720;28;19940;-82
2023/05/02 12:51:55;;;;;;;;;;;;;;;;;;5037762;28;19913;-82
2023/05/02 12:54:20;;;;;;;;;;;;;;;;;;5054270;28;19923;-82
2023/05/02 12:56:46;;;;;;;;;;;;;;;;;;5049634;28;20403;-82
2023/05/02 12:59:11;;;;;;;;;;;;;;;;;;5047497;28;19925;-82
2023/05/02 13:01:36;;;;;;;;;;;;;;;;;;5052709;28;19913;-81
2023/05/02 13:04:02;;;;;;;;;;;;;;;;;;5069478;28;19921;-81
2023/05/02 13:06:27;;;;;;;;;;;;;;;;;;5053645;28;19920;-81
2023/05/02 13:08:53;;;;;;;;;;;;;;;;;;5068890;28;20551;-80
2023/05/02 13:11:19;;;;;;;;;;;;;;;;;;5052543;28;19924;-81
2023/05/02 13:13:44;;;;;;;;;;;;;;;;;;5052455;28;19919;-80
2023/05/02 13:16:10;;;;;;;;;;;;;;;;;;5048903;28;20007;-82
2023/05/02 13:18:35;;;;;;;;;;;;;;;;;;5021068;28;20004;-82
2023/05/02 13:21:01;;;;;;;;;;;;;;;;;;5040523;28;19917;-82
2023/05/02 13:23:26;;;;;;;;;;;;;;;;;;5048987;28;19958;-82
2023/05/02 13:25:52;;;;;;;;;;;;;;;;;;5069060;28;19920;-82
2023/05/02 13:28:17;;;;;;;;;;;;;;;;;;5049274;28;19916;-82
2023/05/02 13:30:43;;;;;;;;;;;;;;;;;;5043662;28;19917;-82
2023/05/02 13:33:08;;;;;;;;;;;;;;;;;;5048944;28;19995;-83
2023/05/02 13:35:34;;;;;;;;;;;;;;;;;;5036236;28;19917;-82
2023/05/02 13:38:00;;;;;;;;;;;;;;;;;;5075925;28;19969;-82
2023/05/02 13:40:25;;;;;;;;;;;;;;;;;;5045611;28;19913;-82
2023/05/02 13:42:51;;;;;;;;;;;;;;;;;;5051664;28;19924;-82
2023/05/02 13:45:16;;;;;;;;;;;;;;;;;;5060685;28;20427;-82
2023/05/02 13:47:42;;;;;;;;;;;;;;;;;;5063841;28;20019;-82
2023/05/02 13:50:07;;;;;;;;;;;;;;;;;;5063100;28;19913;-81
2023/05/02 13:52:32;;;;;;;;;;;;;;;;;;5077927;28;19959;-81
2023/05/02 13:54:58;;;;;;;;;;;;;;;;;;5063791;28;19913;-82
2023/05/02 13:57:23;;;;;;;;;;;;;;;;;;5062147;28;20363;-82
2023/05/02 13:59:49;;;;;;;;;;;;;;;;;;5056643;28;20000;-83
2023/05/02 14:02:14;;;;;;;;;;;;;;;;;;5053293;28;20390;-84
2023/05/02 14:04:42;;;;;;;;;;;;;;;;;;5050167;28;20115;-82
2023/05/02 14:07:07;;;;;;;;;;;;;;;;;;5048992;28;19916;-82
2023/05/02 14:09:33;;;;;;;;;;;;;;;;;;5068449;28;20000;-83
2023/05/02 14:11:58;;;;;;;;;;;;;;;;;;5018832;28;20013;-82
2023/05/02 14:14:23;;;;;;;;;;;;;;;;;;5043450;28;19955;-83
2023/05/02 14:16:49;;;;;;;;;;;;;;;;;;5058426;28;19913;-83
2023/05/02 14:19:14;;;;;;;;;;;;;;;;;;5025801;28;19951;-84
2023/05/02 14:21:40;;;;;;;;;;;;;;;;;;5052498;28;19992;-83
2023/05/02 14:24:05;;;;;;;;;;;;;;;;;;5042334;28;20000;-84
2023/05/02 14:26:31;;;;;;;;;;;;;;;;;;5109589;22;20284;-91
2023/05/02 14:28:57;;;;;;;;;;;;;;;;;;5020772;28;20346;-92
2023/05/02 14:31:23;;;;;;;;;;;;;;;;;;5015019;28;19913;-92
2023/05/02 14:33:48;;;;;;;;;;;;;;;;;;5021425;28;20322;-91
2023/05/02 14:36:13;;;;;;;;;;;;;;;;;;5036486;28;20384;-91
2023/05/02 14:38:39;;;;;;;;;;;;;;;;;;5034196;28;20386;-92
2023/05/02 14:41:05;;;;;;;;;;;;;;;;;;5013412;28;20407;-93
2023/05/02 14:43:31;;;;;;;;;;;;;;;;;;5031985;28;20000;-92
2023/05/02 14:45:57;;;;;;;;;;;;;;;;;;5021027;28;20006;-88
2023/05/02 14:48:23;;;;;;;;;;;;;;;;;;5035035;28;19913;-90
2023/05/02 14:50:48;;;;;;;;;;;;;;;;;;5035345;28;20399;-91
2023/05/02 14:53:14;;;;;;;;;;;;;;;;;;5035961;28;20269;-90
2023/05/02 14:55:39;;;;;;;;;;;;;;;;;;5033853;28;19967;-90
2023/05/02 14:58:06;;;;;;;;;;;;;;;;;;5033628;28;19975;-92
2023/05/02 15:00:32;;;;;;;;;;;;;;;;;;5035393;28;19944;-91
2023/05/02 15:02:57;;;;;;;;;;;;;;;;;;5034899;28;19913;-89
2023/05/02 15:05:23;;;;;;;;;;;;;;;;;;5018942;28;20437;-90
2023/05/02 15:07:48;;;;;;;;;;;;;;;;;;5034405;28;20367;-88
2023/05/02 15:10:14;;;;;;;;;;;;;;;;;;5000341;28;19917;-88
2023/05/02 15:12:39;;;;;;;;;;;;;;;;;;5032177;28;19967;-88
2023/05/02 15:15:04;;;;;;;;;;;;;;;;;;5032124;28;19913;-88
2023/05/02 15:17:30;;;;;;;;;;;;;;;;;;5015309;28;19928;-90
2023/05/02 15:19:56;;;;;;;;;;;;;;;;;;5016025;28;20366;-89
2023/05/02 15:22:23;;;;;;;;;;;;;;;;;;5033223;28;19971;-90
2023/05/02 15:24:48;;;;;;;;;;;;;;;;;;5020305;28;19913;-89
2023/05/02 15:27:14;;;;;;;;;;;;;;;;;;5000906;28;19928;-92
2023/05/02 15:29:39;;;;;;;;;;;;;;;;;;5041314;28;19959;-88
2023/05/02 15:32:05;;;;;;;;;;;;;;;;;;5029767;28;20364;-87
2023/05/02 15:34:30;;;;;;;;;;;;;;;;;;5049322;28;19928;-90
2023/05/02 15:36:56;;;;;;;;;;;;;;;;;;5046525;28;19935;-82
2023/05/02 15:39:25;;;;;;;;;;;;;;;;;;5030438;28;20261;-78
2023/05/02 15:41:51;;;;;;;;;;;;;;;;;;5046591;28;19967;-82
2023/05/02 15:44:17;;;;;;;;;;;;;;;;;;5019660;28;20003;-79
2023/05/02 15:46:45;;;;;;;;;;;;;;;;;;5004584;28;20325;-81
2023/05/02 15:49:10;;;;;;;;;;;;;;;;;;5038022;28;19935;-81
2023/05/02 15:51:36;;;;;;;;;;;;;;;;;;5037123;28;20455;-82
2023/05/02 15:54:01;;;;;;;;;;;;;;;;;;5036277;28;19917;-82
2023/05/02 15:56:27;;;;;;;;;;;;;;;;;;5037725;28;19913;-80
2023/05/02 15:58:52;;;;;;;;;;;;;;;;;;5036156;28;20410;-81
2023/05/02 16:01:20;;;;;;;;;;;;;;;;;;5039617;28;19945;-80
2023/05/02 16:03:46;;;;;;;;;;;;;;;;;;5029587;28;19914;-80
2023/05/02 16:06:11;;;;;;;;;;;;;;;;;;5031555;28;19928;-80
2023/05/02 16:08:37;;;;;;;;;;;;;;;;;;5033683;28;20300;-79
2023/05/02 16:11:02;;;;;;;;;;;;;;;;;;5035292;28;20362;-82
2023/05/02 16:13:27;;;;;;;;;;;;;;;;;;5026260;28;19913;-81
2023/05/02 16:15:54;;;;;;;;;;;;;;;;;;5033877;28;19967;-80
2023/05/02 16:18:21;;;;;;;;;;;;;;;;;;5034889;28;19917;-80
2023/05/02 16:20:48;;;;;;;;;;;;;;;;;;5034834;28;20412;-81
2023/05/02 16:23:14;;;;;;;;;;;;;;;;;;5034653;28;19917;-82
2023/05/02 16:25:39;;;;;;;;;;;;;;;;;;5034936;28;20363;-80
2023/05/02 16:28:05;;;;;;;;;;;;;;;;;;5033913;28;19923;-81
2023/05/02 16:30:31;;;;;;;;;;;;;;;;;;5033647;28;20325;-82
2023/05/02 16:32:56;;;;;;;;;;;;;;;;;;5033958;28;19920;-81
2023/05/02 16:35:22;;;;;;;;;;;;;;;;;;5033866;28;19920;-79